Weatogue, Connecticut
Current Conditions -  °F | °C
As of 10:51 PM on Friday 19 Dec 2014 (Local Time) from KBDL Reporting Station
Scattered Clouds Scattered Clouds  
Wind Chill: 20°   Ceiling: Unl
Heat Index: 27°   Visibility: 10mi
Dew Point: 19°   Wind: 6mph
Humidity: 72%   Direction: 320°NW
Pressure: 30.14"   Gusts: NA
Location:  41.84°N, 72.83°W
Report Text: KBDL 200351Z 32005KT 10SM FEW028 SCT035 M03/M07 A3014 RMK AO2 SLP208 T10281072
Loading
Personal Weather Stations






























Interactive Weather Map New forecast layout! Learn more

10-Day Weather Forecast

Advertisements
Track Severe Weather on mobile